Time;durP1;ratioP1;P1;durP2;ratioP2;P2;SDS_P1;SDS_P2;PMS_P1;PMS_P2;Temp;Humidity;BMP_temperature;BMP_pressure;BME280_temperature;BME280_humidity;BME280_pressure;Samples;Min_cycle;Max_cycle;Signal;HPM_P1;HPM_P2
2023/11/26 00:00:43;;;;;;;15.10;13.97;;;1.10;85.30;;;;;;5077534;28;20649;-84
2023/11/26 00:03:09;;;;;;;13.57;12.60;;;1.10;85.20;;;;;;5095538;28;20167;-84
2023/11/26 00:05:34;;;;;;;37.50;35.10;;;1.00;85.10;;;;;;5095548;28;20185;-84
2023/11/26 00:08:00;;;;;;;41.30;38.83;;;1.00;85.20;;;;;;5095384;28;20191;-84
2023/11/26 00:10:26;;;;;;;32.37;30.30;;;1.00;85.30;;;;;;5095351;28;20171;-84
2023/11/26 00:12:52;;;;;;;15.37;14.27;;;0.90;85.10;;;;;;5095428;28;20175;-84
2023/11/26 00:15:18;;;;;;;15.80;14.60;;;0.90;85.20;;;;;;5095377;28;20572;-84
2023/11/26 00:17:43;;;;;;;38.23;35.50;;;0.80;85.30;;;;;;5077405;28;20243;-84
2023/11/26 00:20:09;;;;;;;39.67;37.20;;;0.80;85.40;;;;;;5095179;28;20203;-84
2023/11/26 00:22:35;;;;;;;35.33;33.00;;;0.80;85.50;;;;;;5077325;28;20227;-84
2023/11/26 00:25:00;;;;;;;15.30;14.20;;;0.80;85.40;;;;;;5095467;28;20178;-84
2023/11/26 00:27:26;;;;;;;15.27;14.00;;;0.90;85.40;;;;;;5095096;28;20251;-84
2023/11/26 00:29:52;;;;;;;38.80;36.30;;;0.80;85.30;;;;;;5095501;28;20179;-84
2023/11/26 00:32:17;;;;;;;40.70;38.30;;;0.80;85.30;;;;;;5076112;28;20260;-84
2023/11/26 00:34:43;;;;;;;30.57;28.63;;;0.80;85.20;;;;;;5094862;28;20175;-84
2023/11/26 00:37:09;;;;;;;15.50;14.20;;;0.80;85.10;;;;;;5094759;28;20551;-84
2023/11/26 00:39:34;;;;;;;16.13;15.03;;;0.80;85.10;;;;;;5095078;28;20665;-84
2023/11/26 00:42:00;;;;;;;37.80;35.50;;;0.70;85.10;;;;;;5095236;28;20171;-84
2023/11/26 00:44:26;;;;;;;40.87;38.40;;;0.70;85.10;;;;;;5094731;28;20544;-84
2023/11/26 00:46:52;;;;;;;31.63;29.33;;;0.70;85.00;;;;;;5094889;28;20166;-84
2023/11/26 00:49:18;;;;;;;15.87;14.83;;;0.70;85.00;;;;;;5094636;28;20182;-84
2023/11/26 00:51:44;;;;;;;16.30;14.97;;;0.60;85.00;;;;;;5076428;28;20289;-84
2023/11/26 00:54:09;;;;;;;39.70;37.30;;;0.60;84.80;;;;;;5094666;28;20220;-84
2023/11/26 00:56:35;;;;;;;39.60;37.20;;;0.40;84.60;;;;;;5094453;28;20171;-84
2023/11/26 00:59:00;;;;;;;30.53;28.53;;;0.40;85.00;;;;;;5094373;28;20167;-84
2023/11/26 01:01:26;;;;;;;15.73;14.73;;;0.40;85.20;;;;;;5094581;28;20179;-84
2023/11/26 01:03:51;;;;;;;15.90;14.90;;;0.50;85.20;;;;;;5094361;28;20175;-84
2023/11/26 01:06:18;;;;;;;39.07;36.27;;;0.30;84.80;;;;;;5076257;28;20179;-84
2023/11/26 01:08:43;;;;;;;39.13;36.73;;;0.20;85.20;;;;;;5094534;28;20194;-84
2023/11/26 01:11:13;;;;;;;39.97;37.43;;;0.20;85.40;;;;;;5076281;28;20698;-85
2023/11/26 01:13:43;;;;;;;15.43;14.37;;;0.10;85.50;;;;;;5075960;28;20555;-84
2023/11/26 01:16:09;;;;;;;15.50;14.40;;;0.10;85.70;;;;;;5076003;28;20192;-84
2023/11/26 01:18:37;;;;;;;15.60;14.60;;;0.20;85.70;;;;;;5075712;28;20193;-84
2023/11/26 01:21:03;;;;;;;15.23;14.23;;;0.30;85.60;;;;;;5094043;28;20178;-84
2023/11/26 01:23:28;;;;;;;15.50;14.50;;;0.30;85.40;;;;;;5076172;28;20543;-84
2023/11/26 01:25:54;;;;;;;15.87;14.73;;;0.20;85.20;;;;;;5075694;28;20199;-84
2023/11/26 01:28:19;;;;;;;15.60;14.60;;;0.10;85.30;;;;;;5075537;28;20195;-84
2023/11/26 01:30:45;;;;;;;15.53;14.53;;;0.10;85.30;;;;;;5093679;28;20212;-85
2023/11/26 01:33:11;;;;;;;15.97;14.73;;;0.10;85.30;;;;;;5093811;28;20541;-84
2023/11/26 01:35:37;;;;;;;15.83;14.80;;;0.10;85.40;;;;;;5075651;28;20178;-84
2023/11/26 01:38:02;;;;;;;16.80;15.50;;;0.10;85.40;;;;;;5093723;28;20216;-84
2023/11/26 01:40:28;;;;;;;16.70;15.63;;;0.00;85.50;;;;;;5075509;28;20546;-84
2023/11/26 01:42:54;;;;;;;39.50;37.10;;;0.10;85.40;;;;;;5093638;28;20178;-84
2023/11/26 01:45:21;;;;;;;40.27;37.77;;;0.00;85.40;;;;;;5074395;28;20585;-84
2023/11/26 01:47:47;;;;;;;43.20;40.30;;;0.00;85.40;;;;;;5093551;28;20183;-84
2023/11/26 01:50:22;;;;;;;43.80;40.90;;;0.10;85.40;;;;;;5093291;28;20186;-84
2023/11/26 01:52:49;;;;;;;42.53;39.80;;;0.10;85.40;;;;;;5093549;28;20198;-84
2023/11/26 01:55:17;;;;;;;43.50;40.70;;;0.20;85.20;;;;;;5093385;28;20195;-84
2023/11/26 01:57:43;;;;;;;16.93;15.00;;;0.20;84.90;;;;;;5093757;28;20186;-84
2023/11/26 02:00:11;;;;;;;16.67;15.37;;;0.20;84.50;;;;;;5093720;28;20249;-84
2023/11/26 02:02:37;;;;;;;39.13;36.73;;;0.30;84.30;;;;;;5075348;28;20674;-87
2023/11/26 02:05:03;;;;;;;40.03;37.47;;;0.20;84.30;;;;;;5093857;28;20175;-86
2023/11/26 02:07:28;;;;;;;21.00;19.70;;;0.20;84.30;;;;;;5075426;28;20205;-86
2023/11/26 02:09:54;;;;;;;16.50;15.30;;;0.10;84.20;;;;;;5093469;28;20190;-84
2023/11/26 02:12:19;;;;;;;16.73;15.60;;;0.10;84.40;;;;;;5093503;28;20277;-85
2023/11/26 02:14:49;;;;;;;40.00;37.47;;;0.10;84.50;;;;;;5093403;28;20166;-84
2023/11/26 02:17:15;;;;;;;40.47;37.97;;;0.10;84.50;;;;;;5093582;28;20190;-84
2023/11/26 02:19:41;;;;;;;41.80;39.10;;;0.10;84.40;;;;;;5074936;28;20299;-84
2023/11/26 02:22:07;;;;;;;17.53;16.13;;;0.00;84.50;;;;;;5075093;28;20673;-84
2023/11/26 02:24:46;;;;;;;17.23;16.13;;;0.00;84.50;;;;;;5093712;28;20216;-83
2023/11/26 02:27:12;;;;;;;43.10;40.30;;;0.00;84.60;;;;;;5093494;28;20191;-84
2023/11/26 02:29:41;;;;;;;43.90;41.30;;;0.00;84.60;;;;;;5093284;28;20264;-84
2023/11/26 02:32:07;;;;;;;30.30;28.37;;;0.10;84.70;;;;;;5075159;28;20591;-84
2023/11/26 02:34:34;;;;;;;16.83;15.70;;;0.00;84.60;;;;;;5074933;28;20175;-85
2023/11/26 02:37:00;;;;;;;16.47;15.40;;;0.00;84.60;;;;;;5074999;28;20570;-84
2023/11/26 02:39:28;;;;;;;40.00;37.30;;;0.00;84.80;;;;;;5075049;28;20177;-84
2023/11/26 02:41:54;;;;;;;41.40;38.67;;;0.00;85.00;;;;;;5093021;28;20167;-84
2023/11/26 02:44:20;;;;;;;43.17;40.57;;;0.00;85.10;;;;;;5093269;28;20177;-84
2023/11/26 02:46:45;;;;;;;15.33;14.23;;;0.00;85.20;;;;;;5093008;28;20199;-84
2023/11/26 02:49:12;;;;;;;15.73;14.73;;;-0.10;85.20;;;;;;5093215;28;20185;-84
2023/11/26 02:51:38;;;;;;;39.50;37.10;;;-0.10;85.30;;;;;;5074768;28;20214;-84
2023/11/26 02:54:03;;;;;;;41.07;38.57;;;0.00;85.30;;;;;;5092939;28;20163;-84
2023/11/26 02:56:29;;;;;;;42.70;40.00;;;0.00;85.20;;;;;;5095543;28;20166;-83
2023/11/26 02:58:54;;;;;;;15.47;14.47;;;0.00;85.20;;;;;;5097016;28;20203;-84
2023/11/26 03:01:21;;;;;;;15.57;14.30;;;0.00;85.20;;;;;;5097057;28;20275;-84
2023/11/26 03:03:47;;;;;;;38.70;36.30;;;0.10;85.20;;;;;;5096870;28;20220;-84
2023/11/26 03:06:15;;;;;;;38.60;36.30;;;0.10;85.10;;;;;;5079469;28;20180;-84
2023/11/26 03:08:43;;;;;;;42.60;40.00;;;0.00;85.10;;;;;;5097209;28;20566;-84
2023/11/26 03:13:55;;;;;;;16.30;15.30;;;0.10;85.00;;;;;;5097037;28;20260;-83
2023/11/26 03:16:23;;;;;;;40.63;37.97;;;0.10;84.70;;;;;;5096930;28;20671;-84
2023/11/26 03:18:49;;;;;;;39.50;37.10;;;0.00;84.50;;;;;;5096698;28;20187;-84
2023/11/26 03:21:16;;;;;;;40.87;38.47;;;0.00;84.50;;;;;;5078239;28;20184;-84
2023/11/26 03:23:42;;;;;;;16.63;15.60;;;0.10;84.40;;;;;;5078271;28;20646;-84
2023/11/26 03:26:08;;;;;;;14.47;13.27;;;0.10;84.70;;;;;;5078394;28;20190;-85
2023/11/26 03:28:34;;;;;;;34.83;32.33;;;0.10;85.00;;;;;;5097050;28;20194;-85
2023/11/26 03:31:00;;;;;;;39.20;36.73;;;0.20;85.20;;;;;;5078393;28;20255;-84
2023/11/26 03:33:27;;;;;;;36.67;34.47;;;0.20;85.20;;;;;;5078181;28;20182;-85
2023/11/26 03:35:53;;;;;;;14.67;13.47;;;0.20;85.90;;;;;;5096778;28;20170;-85
2023/11/26 03:38:19;;;;;;;13.70;12.90;;;0.10;86.20;;;;;;5078273;28;20195;-84
2023/11/26 03:40:44;;;;;;;15.07;14.00;;;0.10;86.30;;;;;;5096693;28;20174;-84
2023/11/26 03:43:11;;;;;;;14.07;13.17;;;0.10;86.40;;;;;;5096213;28;20555;-84
2023/11/26 03:45:36;;;;;;;14.03;13.03;;;0.10;86.30;;;;;;5077975;28;20175;-84
2023/11/26 03:48:03;;;;;;;14.63;13.67;;;0.00;86.50;;;;;;5095837;28;20273;-83
2023/11/26 03:50:29;;;;;;;14.07;12.97;;;0.10;86.70;;;;;;5095769;28;20555;-84
2023/11/26 03:52:55;;;;;;;14.27;13.37;;;0.10;86.70;;;;;;5095637;28;20268;-84
2023/11/26 03:55:21;;;;;;;13.70;12.90;;;0.10;86.70;;;;;;5095911;28;20167;-83
2023/11/26 03:57:46;;;;;;;14.40;13.27;;;0.10;86.70;;;;;;5095781;28;20552;-84
2023/11/26 04:00:13;;;;;;;14.60;13.57;;;0.10;86.70;;;;;;5095451;28;20198;-84
2023/11/26 04:02:38;;;;;;;36.00;33.80;;;0.10;86.70;;;;;;5095443;28;20179;-84
2023/11/26 04:05:05;;;;;;;36.00;33.80;;;0.10;86.80;;;;;;5095398;28;20184;-84
2023/11/26 04:07:31;;;;;;;36.07;33.77;;;0.10;86.80;;;;;;5094008;28;20199;-84
2023/11/26 04:09:57;;;;;;;36.13;34.03;;;0.20;86.70;;;;;;5095324;28;20223;-84
2023/11/26 04:12:23;;;;;;;37.33;34.90;;;0.30;86.60;;;;;;5077176;28;20209;-86
2023/11/26 04:15:07;;;;;;;35.10;33.10;;;0.20;86.50;;;;;;5077322;28;20263;-86
2023/11/26 04:17:34;;;;;;;37.17;34.67;;;0.10;86.50;;;;;;5095471;28;20191;-84
2023/11/26 04:20:00;;;;;;;14.60;13.67;;;0.10;86.50;;;;;;5095226;28;20174;-84
2023/11/26 04:22:27;;;;;;;14.67;13.67;;;0.20;86.60;;;;;;5076864;28;20189;-84
2023/11/26 04:24:53;;;;;;;14.57;13.50;;;0.30;86.60;;;;;;5095038;28;20166;-84
2023/11/26 04:27:19;;;;;;;35.80;33.50;;;0.30;86.60;;;;;;5094955;28;20201;-84
2023/11/26 04:29:46;;;;;;;29.07;27.27;;;0.30;86.50;;;;;;5095081;28;20557;-84
2023/11/26 04:32:12;;;;;;;14.97;13.67;;;0.30;86.60;;;;;;5094825;28;20197;-84
2023/11/26 04:34:38;;;;;;;15.00;13.90;;;0.40;86.50;;;;;;5076719;28;20174;-84
2023/11/26 04:37:14;;;;;;;36.00;33.80;;;0.30;86.50;;;;;;5094768;28;20237;-84
2023/11/26 04:39:39;;;;;;;40.33;37.93;;;0.40;86.60;;;;;;5076715;28;20170;-83
2023/11/26 04:42:05;;;;;;;28.53;26.80;;;0.40;86.50;;;;;;5076491;28;20179;-84
2023/11/26 04:44:32;;;;;;;14.60;13.50;;;0.30;86.60;;;;;;5094666;28;20179;-84
2023/11/26 04:46:58;;;;;;;13.70;12.73;;;0.40;86.70;;;;;;5076477;28;20198;-84
2023/11/26 04:49:24;;;;;;;31.80;29.63;;;0.40;86.80;;;;;;5076298;28;20201;-84
2023/11/26 04:51:50;;;;;;;35.30;33.23;;;0.40;86.80;;;;;;5094373;28;20205;-83
2023/11/26 04:54:15;;;;;;;25.90;24.20;;;0.40;87.00;;;;;;5094561;28;20579;-84
2023/11/26 04:56:41;;;;;;;12.97;12.17;;;0.40;87.10;;;;;;5076243;28;20171;-84
2023/11/26 04:59:08;;;;;;;12.67;11.87;;;0.40;87.40;;;;;;5076248;28;20177;-83
2023/11/26 05:01:48;;;;;;;32.00;30.10;;;0.50;87.60;;;;;;5094318;28;20185;-84
2023/11/26 05:04:15;;;;;;;32.90;30.80;;;0.30;87.70;;;;;;5094713;28;20192;-83
2023/11/26 05:06:44;;;;;;;25.00;23.40;;;0.30;88.00;;;;;;5094385;28;20173;-84
2023/11/26 05:09:12;;;;;;;11.83;11.13;;;0.30;88.20;;;;;;5094168;28;20285;-84
2023/11/26 05:11:47;;;;;;;12.07;11.37;;;0.30;88.30;;;;;;5075721;28;20218;-84
2023/11/26 05:14:13;;;;;;;32.17;30.17;;;0.30;88.50;;;;;;5094519;28;20526;-84
2023/11/26 05:16:39;;;;;;;33.83;31.73;;;0.30;88.50;;;;;;5075786;28;20166;-83
2023/11/26 05:19:05;;;;;;;26.37;24.57;;;0.40;88.60;;;;;;5076054;28;20231;-83
2023/11/26 05:21:31;;;;;;;12.90;12.10;;;0.50;88.40;;;;;;5076169;28;20568;-84
2023/11/26 05:23:56;;;;;;;12.50;11.80;;;0.50;88.50;;;;;;5093817;28;20171;-84
2023/11/26 05:26:22;;;;;;;32.93;30.83;;;0.50;88.40;;;;;;5093752;28;20216;-83
2023/11/26 05:28:47;;;;;;;33.40;31.47;;;0.50;88.40;;;;;;5093788;28;20183;-84
2023/11/26 05:31:14;;;;;;;24.87;23.37;;;0.50;88.50;;;;;;5094058;28;20202;-83
2023/11/26 05:33:40;;;;;;;12.30;11.40;;;0.50;88.60;;;;;;5075489;28;20269;-83
2023/11/26 05:36:06;;;;;;;11.47;10.77;;;0.50;88.50;;;;;;5075843;28;20232;-84
2023/11/26 05:38:32;;;;;;;32.50;30.60;;;0.50;88.70;;;;;;5093632;28;20191;-84
2023/11/26 05:40:58;;;;;;;34.53;32.47;;;0.40;88.60;;;;;;5093651;28;20593;-84
2023/11/26 05:43:24;;;;;;;24.50;23.00;;;0.40;88.70;;;;;;5093547;28;20258;-84
2023/11/26 05:45:50;;;;;;;13.00;11.67;;;0.40;88.80;;;;;;5094114;28;20601;-84
2023/11/26 05:48:15;;;;;;;11.30;10.60;;;0.40;88.90;;;;;;5093319;28;20202;-84
2023/11/26 05:50:41;;;;;;;12.40;11.33;;;0.40;88.80;;;;;;5093401;28;20236;-84
2023/11/26 05:53:07;;;;;;;11.43;10.63;;;0.40;88.80;;;;;;5093385;28;20174;-84
2023/11/26 05:55:33;;;;;;;11.73;11.03;;;0.50;88.80;;;;;;5093626;28;20574;-84
2023/11/26 05:57:58;;;;;;;12.70;11.80;;;0.50;88.70;;;;;;5075095;28;20281;-84
2023/11/26 06:00:24;;;;;;;12.83;12.03;;;0.50;88.60;;;;;;5093612;28;20512;-84
2023/11/26 06:02:51;;;;;;;12.60;11.83;;;0.40;88.60;;;;;;5075198;28;20175;-84
2023/11/26 06:05:16;;;;;;;12.47;11.47;;;0.50;88.70;;;;;;5093224;28;20222;-84
2023/11/26 06:07:42;;;;;;;11.90;11.20;;;0.60;88.60;;;;;;5093024;28;20608;-83
2023/11/26 06:10:09;;;;;;;12.97;12.00;;;0.50;88.40;;;;;;5093431;28;20177;-84
2023/11/26 06:12:35;;;;;;;30.63;28.83;;;0.40;88.70;;;;;;5093110;28;20208;-83
2023/11/26 06:15:01;;;;;;;28.53;26.50;;;0.40;88.90;;;;;;5074986;28;20252;-84
2023/11/26 06:17:26;;;;;;;27.50;25.80;;;0.30;89.30;;;;;;5093427;28;20268;-84
2023/11/26 06:19:52;;;;;;;29.17;27.13;;;0.40;89.70;;;;;;5074910;28;20238;-84
2023/11/26 06:22:17;;;;;;;29.07;27.03;;;0.40;89.90;;;;;;5074960;28;20170;-83
2023/11/26 06:24:43;;;;;;;29.87;27.97;;;0.50;89.90;;;;;;5093659;28;20602;-84
2023/11/26 06:27:08;;;;;;;10.47;9.70;;;0.50;90.00;;;;;;5092773;28;20191;-83
2023/11/26 06:29:34;;;;;;;9.40;8.80;;;0.50;89.90;;;;;;5093054;28;20203;-83
2023/11/26 06:32:00;;;;;;;28.90;26.63;;;0.40;89.90;;;;;;5096203;28;20194;-84
2023/11/26 06:34:26;;;;;;;29.40;27.67;;;0.40;89.80;;;;;;5097174;28;20645;-83
2023/11/26 06:36:54;;;;;;;20.00;18.63;;;0.50;89.90;;;;;;5097122;28;20158;-84
2023/11/26 06:39:20;;;;;;;11.10;10.33;;;0.50;89.80;;;;;;5097166;28;20576;-83
2023/11/26 06:41:46;;;;;;;11.40;9.97;;;0.60;89.80;;;;;;5078889;28;20171;-84
2023/11/26 06:44:11;;;;;;;26.10;24.50;;;0.50;89.70;;;;;;5097243;28;20182;-84
2023/11/26 06:46:37;;;;;;;30.47;28.57;;;0.50;89.70;;;;;;5096930;28;20670;-84
2023/11/26 06:49:02;;;;;;;26.53;24.93;;;0.50;89.70;;;;;;5096800;28;20684;-84
2023/11/26 06:51:28;;;;;;;11.00;10.20;;;0.50;89.80;;;;;;5096764;28;20703;-84
2023/11/26 06:53:54;;;;;;;10.33;9.73;;;0.50;89.80;;;;;;5096908;28;20163;-84
2023/11/26 06:56:20;;;;;;;27.27;25.67;;;0.50;89.90;;;;;;5096795;28;20689;-84
2023/11/26 06:58:49;;;;;;;27.20;25.47;;;0.40;89.90;;;;;;5096674;28;20187;-84
2023/11/26 07:01:15;;;;;;;26.43;24.80;;;0.40;90.00;;;;;;5078495;28;20218;-83
2023/11/26 07:03:42;;;;;;;11.40;10.60;;;0.40;90.10;;;;;;5078442;28;20209;-83
2023/11/26 07:06:10;;;;;;;12.17;11.23;;;0.40;90.10;;;;;;5097153;28;20237;-84
2023/11/26 07:08:37;;;;;;;24.77;23.07;;;0.50;90.30;;;;;;5096687;28;20198;-83
2023/11/26 07:11:03;;;;;;;24.17;22.67;;;0.40;90.60;;;;;;5096539;28;20222;-84
2023/11/26 07:13:29;;;;;;;20.57;19.27;;;0.40;90.90;;;;;;5096552;28;20167;-84
2023/11/26 07:15:54;;;;;;;8.60;7.80;;;0.40;91.00;;;;;;5078142;28;20652;-83
2023/11/26 07:18:20;;;;;;;7.67;7.17;;;0.40;91.00;;;;;;5096574;28;20198;-84
2023/11/26 07:20:46;;;;;;;22.07;20.57;;;0.40;91.00;;;;;;5096384;28;20212;-84
2023/11/26 07:23:12;;;;;;;25.07;23.47;;;0.60;91.10;;;;;;5078145;28;20715;-84
2023/11/26 07:25:39;;;;;;;21.37;20.07;;;0.60;91.00;;;;;;5096390;28;20185;-84
2023/11/26 07:28:11;;;;;;;8.40;7.77;;;0.60;91.00;;;;;;5078062;28;20255;-83
2023/11/26 07:30:40;;;;;;;8.90;8.10;;;0.70;91.00;;;;;;5096144;28;20211;-84
2023/11/26 07:33:06;;;;;;;17.87;16.30;;;0.70;91.00;;;;;;5077910;28;20662;-83
2023/11/26 07:35:31;;;;;;;26.63;24.77;;;0.70;91.00;;;;;;5077938;28;20168;-83
2023/11/26 07:37:57;;;;;;;23.77;22.10;;;0.80;90.80;;;;;;5095939;28;20198;-84
2023/11/26 07:40:22;;;;;;;9.23;8.60;;;0.70;90.70;;;;;;5095959;28;20297;-83
2023/11/26 07:42:50;;;;;;;10.33;9.03;;;0.70;90.70;;;;;;5077578;28;20183;-83
2023/11/26 07:45:16;;;;;;;20.50;19.10;;;0.80;90.70;;;;;;5077690;28;20181;-83
2023/11/26 07:47:41;;;;;;;17.90;16.70;;;0.80;90.50;;;;;;5095761;28;20277;-83
2023/11/26 07:50:07;;;;;;;18.23;17.13;;;0.70;90.30;;;;;;5095635;28;20194;-84
2023/11/26 07:52:34;;;;;;;8.80;7.50;;;0.60;90.30;;;;;;5077581;28;20194;-83
2023/11/26 07:55:04;;;;;;;8.73;8.13;;;0.60;90.40;;;;;;5095632;28;20162;-83
2023/11/26 07:57:34;;;;;;;9.37;8.70;;;0.60;90.50;;;;;;5095493;28;20553;-83
2023/11/26 08:00:00;;;;;;;8.83;8.03;;;0.60;90.50;;;;;;5095498;28;20174;-84
2023/11/26 08:02:27;;;;;;;8.47;7.67;;;0.60;90.50;;;;;;5077254;28;20211;-84
2023/11/26 08:04:53;;;;;;;9.67;8.67;;;0.70;90.60;;;;;;5095395;28;20173;-83
2023/11/26 08:07:23;;;;;;;9.30;8.33;;;0.70;90.70;;;;;;5077251;28;20202;-83
2023/11/26 08:09:50;;;;;;;9.57;7.90;;;0.80;90.70;;;;;;5095863;28;20155;-83
2023/11/26 08:12:18;;;;;;;8.90;8.30;;;0.80;90.70;;;;;;5095371;28;20197;-84
2023/11/26 08:14:44;;;;;;;9.37;8.77;;;0.70;90.50;;;;;;5095280;28;20163;-84
2023/11/26 08:17:09;;;;;;;9.70;9.10;;;0.70;90.40;;;;;;5095195;28;20182;-84
2023/11/26 08:19:36;;;;;;;22.90;21.50;;;0.70;90.50;;;;;;5095162;28;20170;-83
2023/11/26 08:22:01;;;;;;;20.87;19.30;;;0.70;90.40;;;;;;5095295;28;20171;-84
2023/11/26 08:24:29;;;;;;;22.23;20.73;;;0.70;90.40;;;;;;5095286;28;20174;-83
2023/11/26 08:26:54;;;;;;;17.30;16.00;;;0.70;90.40;;;;;;5095166;28;20263;-83
2023/11/26 08:29:20;;;;;;;17.40;16.27;;;0.80;90.50;;;;;;5095355;28;20626;-84
2023/11/26 08:31:49;;;;;;;18.60;17.20;;;0.90;90.60;;;;;;5095050;28;20200;-84
2023/11/26 08:34:15;;;;;;;19.93;18.57;;;0.90;90.40;;;;;;5095126;28;20198;-83
2023/11/26 08:36:42;;;;;;;20.83;19.10;;;0.80;90.30;;;;;;5076756;28;20210;-85
2023/11/26 08:39:14;;;;;;;23.70;21.70;;;0.90;90.30;;;;;;5094861;28;20200;-84
2023/11/26 08:41:42;;;;;;;9.57;8.77;;;1.00;90.30;;;;;;5094897;28;20159;-84
2023/11/26 08:44:09;;;;;;;9.23;8.50;;;1.00;90.30;;;;;;5076559;28;20178;-83
2023/11/26 08:46:36;;;;;;;10.00;9.27;;;1.00;90.20;;;;;;5076422;28;20179;-83
2023/11/26 08:49:03;;;;;;;23.27;21.77;;;1.00;90.20;;;;;;5094677;28;20189;-84
2023/11/26 08:51:32;;;;;;;22.65;21.25;;;1.10;90.20;;;;;;5094163;28;20444;-84
2023/11/26 08:53:59;;;;;;;10.57;9.77;;;1.10;90.20;;;;;;5075817;28;20639;-84
2023/11/26 08:56:25;;;;;;;11.57;10.53;;;1.10;90.10;;;;;;5094588;28;20168;-84
2023/11/26 08:58:51;;;;;;;23.57;22.07;;;1.20;90.00;;;;;;5076256;28;20727;-84
2023/11/26 09:01:17;;;;;;;23.07;21.47;;;1.10;89.90;;;;;;5076439;28;20178;-84
2023/11/26 09:03:43;;;;;;;20.10;18.50;;;1.20;89.90;;;;;;5094317;28;20222;-84
2023/11/26 09:06:08;;;;;;;10.20;9.50;;;1.20;89.90;;;;;;5076090;28;20244;-83
2023/11/26 09:08:35;;;;;;;10.87;9.97;;;1.20;90.00;;;;;;5094167;28;20279;-84
2023/11/26 09:11:00;;;;;;;21.13;19.73;;;1.20;89.90;;;;;;5094238;28;20250;-83
2023/11/26 09:13:31;;;;;;;22.90;21.50;;;1.20;89.70;;;;;;5076040;28;20262;-84
2023/11/26 09:15:59;;;;;;;21.83;19.83;;;1.10;89.60;;;;;;5076017;28;20213;-83
2023/11/26 09:18:24;;;;;;;11.03;10.33;;;1.20;89.70;;;;;;5094040;28;20660;-83
2023/11/26 09:20:50;;;;;;;11.43;10.30;;;1.20;89.60;;;;;;5094066;28;20220;-84
2023/11/26 09:23:16;;;;;;;21.90;20.57;;;1.20;89.50;;;;;;5094130;28;20701;-84
2023/11/26 09:25:41;;;;;;;23.43;21.80;;;1.30;89.70;;;;;;5093962;28;20167;-84
2023/11/26 09:28:09;;;;;;;22.83;21.20;;;1.20;89.70;;;;;;5093980;28;20688;-84
2023/11/26 09:30:35;;;;;;;10.63;9.83;;;1.30;89.90;;;;;;5093872;28;20657;-83
2023/11/26 09:33:00;;;;;;;10.23;9.53;;;1.20;89.90;;;;;;5093913;28;20195;-84
2023/11/26 09:35:26;;;;;;;21.73;20.20;;;1.30;89.90;;;;;;5094143;28;20170;-84
2023/11/26 09:37:51;;;;;;;22.30;20.80;;;1.30;89.90;;;;;;5094044;28;20251;-84
2023/11/26 09:40:17;;;;;;;21.63;20.03;;;1.30;89.80;;;;;;5075466;28;20162;-83
2023/11/26 09:42:52;;;;;;;11.33;10.23;;;1.20;89.80;;;;;;5075385;28;20178;-85
2023/11/26 09:45:18;;;;;;;10.77;9.87;;;1.20;89.90;;;;;;5075453;28;20166;-83
2023/11/26 09:47:44;;;;;;;14.10;12.87;;;1.20;90.00;;;;;;5093530;28;20193;-83
2023/11/26 09:50:10;;;;;;;12.73;11.83;;;1.10;90.00;;;;;;5093847;28;20190;-87
2023/11/26 09:52:37;;;;;;;12.93;11.57;;;1.20;90.10;;;;;;5075386;28;20182;-84
2023/11/26 09:55:03;;;;;;;9.77;7.73;;;1.20;90.20;;;;;;5093494;28;20035;-84
2023/11/26 09:57:29;;;;;;;;;;;1.20;90.20;;;;;;5075333;28;20227;-83
2023/11/26 09:59:56;;;;;;;15.33;14.23;;;1.20;90.00;;;;;;5093822;28;20407;-83
2023/11/26 10:02:21;;;;;;;16.30;15.00;;;1.30;90.00;;;;;;5075734;28;20114;-85
2023/11/26 10:04:49;;;;;;;15.43;14.17;;;1.30;90.20;;;;;;5093937;28;20266;-84
2023/11/26 10:07:15;;;;;;;9.60;8.70;;;1.30;90.30;;;;;;5093210;28;20197;-84
2023/11/26 10:09:42;;;;;;;8.90;8.00;;;1.30;90.30;;;;;;5093678;28;20182;-84
2023/11/26 10:12:07;;;;;;;15.97;11.47;;;1.30;90.30;;;;;;5075347;28;20190;-84
2023/11/26 10:14:33;;;;;;;9.67;8.73;;;1.50;90.40;;;;;;5075384;28;20151;-85
2023/11/26 10:17:11;;;;;;;8.30;7.53;;;1.50;90.00;;;;;;5093974;28;20195;-85
2023/11/26 10:19:39;;;;;;;26.23;13.40;;;1.50;89.90;;;;;;5076222;28;20020;-86
2023/11/26 10:22:04;;;;;;;23.77;13.57;;;1.50;90.00;;;;;;5094085;28;20228;-84
2023/11/26 10:24:30;;;;;;;9.50;8.60;;;1.50;90.20;;;;;;5075875;28;20202;-85
2023/11/26 10:26:58;;;;;;;15.30;10.20;;;1.60;90.40;;;;;;5093985;28;20283;-86
2023/11/26 10:29:29;;;;;;;11.13;10.03;;;1.70;90.30;;;;;;5075631;28;20175;-85
2023/11/26 10:31:59;;;;;;;11.83;10.63;;;1.70;90.30;;;;;;5075336;28;20686;-85
2023/11/26 10:34:25;;;;;;;18.23;16.33;;;1.70;90.40;;;;;;5093553;28;20254;-84
2023/11/26 10:36:51;;;;;;;16.43;15.10;;;1.80;90.40;;;;;;5093787;28;20210;-84
2023/11/26 10:39:17;;;;;;;17.73;16.43;;;1.90;90.30;;;;;;5093488;28;20179;-84
2023/11/26 10:41:45;;;;;;;18.13;16.73;;;1.90;89.90;;;;;;5094040;28;20557;-84
2023/11/26 10:44:12;;;;;;;18.70;17.40;;;1.80;89.40;;;;;;5093561;28;20175;-84
2023/11/26 10:46:39;;;;;;;18.47;17.17;;;1.80;89.30;;;;;;5075155;28;20266;-85
2023/11/26 10:49:34;;;;;;;18.97;17.37;;;1.80;89.30;;;;;;5093373;28;20593;-84
2023/11/26 10:52:42;;;;;;;19.17;17.60;;;1.70;89.40;;;;;;5093643;28;20240;-85
2023/11/26 10:55:13;;;;;;;17.70;16.50;;;1.70;89.50;;;;;;4992113;28;20189;-84
2023/11/26 10:57:41;;;;;;;17.10;15.73;;;1.70;89.60;;;;;;5063174;28;20263;-86
2023/11/26 11:00:18;;;;;;;18.00;16.50;;;1.70;89.60;;;;;;5075356;28;20525;-85
2023/11/26 11:02:44;;;;;;;19.07;17.43;;;1.70;89.60;;;;;;5093482;28;20616;-85
2023/11/26 11:05:11;;;;;;;16.63;15.50;;;1.80;89.60;;;;;;5094405;28;20190;-86
2023/11/26 11:07:38;;;;;;;9.70;8.80;;;1.80;89.60;;;;;;5094360;28;20182;-87
2023/11/26 11:10:26;;;;;;;8.77;8.17;;;1.80;89.50;;;;;;5095138;28;20523;-87
2023/11/26 11:12:54;;;;;;;19.25;17.95;;;1.80;89.30;;;;;;5075976;28;20202;-87
2023/11/26 11:15:23;;;;;;;20.17;18.77;;;1.90;89.30;;;;;;5076439;28;20661;-86
2023/11/26 11:17:48;;;;;;;22.93;21.37;;;1.90;89.10;;;;;;5096527;28;20240;-85
2023/11/26 11:20:14;;;;;;;14.03;10.23;;;1.90;88.90;;;;;;5097201;28;20167;-84
2023/11/26 11:22:45;;;;;;;11.40;10.50;;;1.90;88.90;;;;;;5097279;28;20163;-87
2023/11/26 11:25:13;;;;;;;21.67;20.07;;;1.90;88.60;;;;;;5097933;28;20660;-85
2023/11/26 11:27:48;;;;;;;22.73;21.13;;;1.90;88.50;;;;;;5097533;28;20191;-85
2023/11/26 11:30:32;;;;;;;20.03;18.40;;;1.90;88.60;;;;;;5097133;28;20166;-85
2023/11/26 11:33:09;;;;;;;11.80;10.80;;;1.90;88.50;;;;;;5097090;28;20202;-84
2023/11/26 11:35:45;;;;;;;12.20;10.33;;;1.80;88.50;;;;;;5097228;28;20170;-85
2023/11/26 11:38:12;;;;;;;12.50;11.33;;;1.90;88.60;;;;;;5097072;28;20190;-84
2023/11/26 11:41:11;;;;;;;11.83;10.83;;;1.90;88.50;;;;;;5096529;28;20256;-85
2023/11/26 11:43:39;;;;;;;11.80;10.80;;;1.90;88.60;;;;;;5096496;28;20173;-85
2023/11/26 11:46:30;;;;;;;12.40;11.17;;;2.00;88.70;;;;;;5096746;28;20174;-84
2023/11/26 11:48:57;;;;;;;12.50;11.43;;;2.10;88.70;;;;;;5096633;28;20218;-85
2023/11/26 11:51:42;;;;;;;12.20;11.03;;;2.20;88.40;;;;;;5096580;28;20214;-84
2023/11/26 11:54:10;;;;;;;13.13;11.93;;;2.20;88.30;;;;;;5096796;28;20213;-85
2023/11/26 11:56:40;;;;;;;12.23;11.03;;;2.20;88.20;;;;;;5097297;28;20171;-86
2023/11/26 11:59:07;;;;;;;20.03;18.33;;;2.30;88.30;;;;;;5078604;28;20183;-88
2023/11/26 12:01:36;;;;;;;17.63;16.13;;;2.30;88.30;;;;;;5078930;28;20183;-86
2023/11/26 12:04:02;;;;;;;17.43;15.93;;;2.30;88.40;;;;;;5097260;28;20297;-85
2023/11/26 12:06:31;;;;;;;16.20;14.93;;;2.30;88.40;;;;;;5078391;28;20232;-85
2023/11/26 12:09:05;;;;;;;17.90;16.63;;;2.30;88.30;;;;;;5096820;28;20223;-85
2023/11/26 12:11:31;;;;;;;20.03;18.63;;;2.40;88.10;;;;;;5078588;28;20202;-86
2023/11/26 12:13:56;;;;;;;19.87;18.07;;;2.40;87.70;;;;;;5096119;28;20170;-85
2023/11/26 12:16:22;;;;;;;20.30;18.70;;;2.60;87.50;;;;;;5096568;28;20566;-85
2023/11/26 12:18:55;;;;;;;20.93;19.33;;;2.60;87.20;;;;;;5096350;28;20194;-86
2023/11/26 12:21:24;;;;;;;20.40;18.77;;;2.60;86.70;;;;;;5096708;28;20159;-85
2023/11/26 12:23:50;;;;;;;20.97;19.37;;;2.60;86.60;;;;;;5096383;28;20255;-85
2023/11/26 12:26:15;;;;;;;22.73;21.23;;;2.60;86.70;;;;;;5078532;28;20666;-86
2023/11/26 12:28:46;;;;;;;22.17;20.57;;;2.70;86.80;;;;;;5095397;28;20230;-86
2023/11/26 12:31:12;;;;;;;23.33;21.60;;;2.70;87.00;;;;;;5096193;28;20702;-85
2023/11/26 12:33:44;;;;;;;22.30;20.73;;;2.70;87.10;;;;;;5079717;28;20186;-85
2023/11/26 12:36:11;;;;;;;22.17;20.50;;;2.70;86.70;;;;;;5098449;28;20671;-86
2023/11/26 12:38:39;;;;;;;21.93;20.40;;;2.50;86.80;;;;;;5098029;28;20193;-86
2023/11/26 12:41:07;;;;;;;22.70;20.50;;;2.50;87.00;;;;;;5079572;28;20597;-86